createdAt,value
2019-02-28T00:00:47.399Z,4.80
2019-02-28T00:03:16.228Z,4.80
2019-02-28T00:05:46.032Z,4.80
2019-02-28T00:08:14.939Z,4.70
2019-02-28T00:10:43.768Z,4.70
2019-02-28T00:13:12.753Z,4.80
2019-02-28T00:15:41.663Z,4.80
2019-02-28T00:18:10.552Z,4.80
2019-02-28T00:20:39.478Z,4.80
2019-02-28T00:23:08.385Z,4.70
2019-02-28T00:25:38.093Z,4.70
2019-02-28T00:28:07.632Z,4.70
2019-02-28T00:30:37.358Z,4.70
2019-02-28T00:33:07.020Z,4.70
2019-02-28T00:35:35.996Z,4.70
2019-02-28T00:38:04.902Z,4.70
2019-02-28T00:40:33.809Z,4.70
2019-02-28T00:43:02.720Z,4.70
2019-02-28T00:45:36.244Z,4.70
2019-02-28T00:48:02.278Z,4.70
2019-02-28T00:50:31.179Z,4.70
2019-02-28T00:53:00.089Z,4.70
2019-02-28T00:55:29.001Z,4.60
2019-02-28T00:57:57.828Z,4.70
2019-02-28T01:00:26.812Z,4.70
2019-02-28T01:02:55.829Z,4.70
2019-02-28T01:05:24.731Z,4.70
2019-02-28T01:07:53.638Z,4.70
2019-02-28T01:10:22.546Z,4.70
2019-02-28T01:12:54.293Z,4.70
2019-02-28T01:15:21.998Z,4.70
2019-02-28T01:17:50.914Z,4.70
2019-02-28T01:20:19.830Z,4.70
2019-02-28T01:22:48.648Z,4.60
2019-02-28T01:25:20.696Z,4.70
2019-02-28T01:27:52.413Z,4.60
2019-02-28T01:30:20.357Z,4.60
2019-02-28T01:32:50.897Z,4.60
2019-02-28T01:35:20.121Z,4.70
2019-02-28T01:37:49.024Z,4.70
2019-02-28T01:40:18.039Z,4.70
2019-02-28T01:42:46.941Z,4.60
2019-02-28T01:45:15.957Z,4.60
2019-02-28T01:47:44.858Z,4.60
2019-02-28T01:50:14.483Z,4.50
2019-02-28T01:52:45.880Z,4.40
2019-02-28T01:55:14.128Z,4.30
2019-02-28T01:57:44.372Z,4.20
2019-02-28T02:00:18.301Z,4.20
2019-02-28T02:02:47.312Z,4.10
2019-02-28T02:05:16.896Z,4.00
2019-02-28T02:07:47.073Z,4.00
2019-02-28T02:10:21.320Z,3.90
2019-02-28T02:12:50.796Z,3.90
2019-02-28T02:15:20.039Z,3.90
2019-02-28T02:17:49.055Z,3.90
2019-02-28T02:20:18.537Z,3.90
2019-02-28T02:22:47.481Z,3.80
2019-02-28T02:25:16.718Z,3.80
2019-02-28T02:27:45.703Z,3.80
2019-02-28T02:30:20.098Z,3.80
2019-02-28T02:32:49.003Z,3.80
2019-02-28T02:35:17.952Z,3.80
2019-02-28T02:37:47.065Z,3.80
2019-02-28T02:40:17.002Z,3.70
2019-02-28T02:42:48.543Z,3.70
2019-02-28T02:45:16.640Z,3.70
2019-02-28T02:47:45.562Z,3.70
2019-02-28T02:50:15.374Z,3.70
2019-02-28T02:52:44.517Z,3.70
2019-02-28T02:55:14.107Z,3.60
2019-02-28T02:57:43.136Z,3.60
2019-02-28T03:00:19.250Z,3.60
2019-02-28T03:02:48.220Z,3.60
2019-02-28T03:05:17.229Z,3.60
2019-02-28T03:07:46.143Z,3.60
2019-02-28T03:10:19.769Z,3.60
2019-02-28T03:12:49.072Z,3.60
2019-02-28T03:15:25.227Z,3.60
2019-02-28T03:17:49.397Z,3.60
2019-02-28T03:20:18.462Z,3.60
2019-02-28T03:22:47.477Z,3.60
2019-02-28T03:25:17.256Z,3.50
2019-02-28T03:27:46.101Z,3.60
2019-02-28T03:30:27.722Z,3.50
2019-02-28T03:32:49.853Z,3.50
2019-02-28T03:35:18.758Z,3.40
2019-02-28T03:37:47.666Z,3.40
2019-02-28T03:40:16.572Z,3.40
2019-02-28T03:42:45.483Z,3.30
2019-02-28T03:45:17.255Z,3.30
2019-02-28T03:47:46.176Z,3.30
2019-02-28T03:50:15.276Z,3.20
2019-02-28T03:52:44.896Z,3.20
2019-02-28T03:55:14.930Z,3.20
2019-02-28T03:57:43.846Z,3.20
2019-02-28T04:00:20.939Z,3.20
2019-02-28T04:02:56.886Z,3.10
2019-02-28T04:05:26.644Z,3.10
2019-02-28T04:07:53.621Z,3.10
2019-02-28T04:10:22.552Z,3.10
2019-02-28T04:12:51.823Z,3.10
2019-02-28T04:15:21.563Z,3.10
2019-02-28T04:17:50.462Z,3.10
2019-02-28T04:20:19.568Z,3.10
2019-02-28T04:22:48.578Z,3.10
2019-02-28T04:25:22.480Z,3.00
2019-02-28T04:27:48.132Z,3.00
2019-02-28T04:30:17.151Z,3.00
2019-02-28T04:32:46.054Z,3.00
2019-02-28T04:35:14.956Z,3.00
2019-02-28T04:37:46.847Z,3.00
2019-02-28T04:40:14.517Z,3.00
2019-02-28T04:42:43.623Z,2.90
2019-02-28T04:45:13.689Z,2.90
2019-02-28T04:47:43.625Z,2.90
2019-02-28T04:50:13.396Z,2.90
2019-02-28T04:52:46.473Z,2.90
2019-02-28T04:55:12.870Z,2.90
2019-02-28T04:57:41.777Z,2.90
2019-02-28T05:00:18.670Z,2.90
2019-02-28T05:02:47.575Z,2.90
2019-02-28T05:05:16.499Z,2.90
2019-02-28T05:07:45.395Z,2.80
2019-02-28T05:10:14.281Z,2.80
2019-02-28T05:12:43.311Z,2.80
2019-02-28T05:15:13.845Z,2.70
2019-02-28T05:17:42.764Z,2.70
2019-02-28T05:20:12.290Z,2.70
2019-02-28T05:22:41.306Z,2.60
2019-02-28T05:25:11.340Z,2.60
2019-02-28T05:27:40.337Z,2.60
2019-02-28T05:30:12.100Z,2.80
2019-02-28T05:32:40.996Z,2.80
2019-02-28T05:35:09.856Z,2.70
2019-02-28T05:37:38.838Z,2.70
2019-02-28T05:40:10.713Z,2.70
2019-02-28T05:42:39.618Z,2.70
2019-02-28T05:45:11.360Z,2.70
2019-02-28T05:47:46.332Z,2.80
2019-02-28T05:50:15.892Z,2.80
2019-02-28T05:52:42.731Z,2.90
2019-02-28T05:55:11.627Z,2.90
2019-02-28T05:57:43.560Z,2.90
2019-02-28T06:00:17.326Z,2.90
2019-02-28T06:02:46.238Z,2.90
2019-02-28T06:05:15.184Z,2.90
2019-02-28T06:07:44.148Z,2.90
2019-02-28T06:10:14.284Z,2.90
2019-02-28T06:12:44.081Z,2.90
2019-02-28T06:15:15.377Z,2.90
2019-02-28T06:17:44.283Z,3.00
2019-02-28T06:20:16.299Z,3.10
2019-02-28T06:22:44.761Z,3.10
2019-02-28T06:25:21.981Z,3.20
2019-02-28T06:27:49.028Z,3.20
2019-02-28T06:30:16.975Z,3.30
2019-02-28T06:32:46.018Z,3.40
2019-02-28T06:35:17.705Z,3.40
2019-02-28T06:37:45.576Z,3.50
2019-02-28T06:40:15.418Z,3.60
2019-02-28T06:42:46.725Z,3.60
2019-02-28T06:45:19.974Z,3.60
2019-02-28T06:47:50.052Z,3.60
2019-02-28T06:50:19.229Z,3.60
2019-02-28T06:52:48.129Z,3.60
2019-02-28T06:55:21.336Z,3.70
2019-02-28T06:57:50.242Z,3.70
2019-02-28T07:00:19.355Z,3.80
2019-02-28T07:02:50.077Z,3.90
2019-02-28T07:05:24.819Z,3.90
2019-02-28T07:07:50.080Z,3.90
2019-02-28T07:10:19.387Z,4.00
2019-02-28T07:12:48.300Z,4.10
2019-02-28T07:15:20.503Z,4.20
2019-02-28T07:17:47.749Z,4.30
2019-02-28T07:20:20.240Z,4.40
2019-02-28T07:22:54.647Z,4.50
2019-02-28T07:25:19.896Z,4.50
2019-02-28T07:27:48.809Z,4.60
2019-02-28T07:30:21.806Z,4.70
2019-02-28T07:32:50.714Z,4.80
2019-02-28T07:35:19.621Z,4.80
2019-02-28T07:37:53.337Z,4.80
2019-02-28T07:40:19.420Z,4.80
2019-02-28T07:42:48.391Z,4.70
2019-02-28T07:45:17.420Z,4.70
2019-02-28T07:47:51.690Z,4.60
2019-02-28T07:50:17.059Z,4.60
2019-02-28T07:52:45.968Z,4.60
2019-02-28T07:55:21.407Z,4.60
2019-02-28T07:57:54.278Z,4.70
2019-02-28T08:00:24.681Z,4.80
2019-02-28T08:02:53.760Z,5.00
2019-02-28T08:05:22.684Z,5.90
2019-02-28T08:07:52.588Z,7.00
2019-02-28T08:10:32.489Z,8.20
2019-02-28T08:13:03.051Z,9.00
2019-02-28T08:15:32.116Z,10.20
2019-02-28T08:18:01.225Z,11.00
2019-02-28T08:20:30.663Z,11.10
2019-02-28T08:23:00.697Z,11.20
2019-02-28T08:25:29.707Z,10.80
2019-02-28T08:27:59.699Z,11.00
2019-02-28T08:30:33.663Z,11.30
2019-02-28T08:33:02.776Z,11.20
2019-02-28T08:35:34.921Z,10.90
2019-02-28T08:38:02.332Z,10.60
2019-02-28T08:40:31.343Z,10.80
2019-02-28T08:43:00.251Z,10.80
2019-02-28T08:45:32.766Z,11.00
2019-02-28T08:47:59.702Z,11.30
2019-02-28T08:50:28.614Z,11.60
2019-02-28T08:53:02.124Z,11.60
2019-02-28T08:55:31.032Z,11.50
2019-02-28T08:58:05.013Z,11.80
2019-02-28T09:00:33.019Z,11.00
2019-02-28T09:03:02.186Z,10.20
2019-02-28T09:05:36.887Z,10.50
2019-02-28T09:08:05.907Z,10.50
2019-02-28T09:10:37.511Z,10.90
2019-02-28T09:13:08.745Z,11.10
2019-02-28T09:16:07.836Z,11.50
2019-02-28T09:18:36.846Z,11.50
2019-02-28T09:21:05.754Z,12.10
2019-02-28T09:23:37.679Z,12.90
2019-02-28T09:26:05.314Z,12.30
2019-02-28T09:28:34.217Z,11.60
2019-02-28T09:31:05.114Z,10.80
2019-02-28T09:33:33.774Z,10.40
2019-02-28T09:36:02.886Z,9.80
2019-02-28T09:38:31.894Z,9.10
2019-02-28T09:41:01.471Z,8.80
2019-02-28T09:43:31.350Z,8.70
2019-02-28T09:46:00.360Z,8.50
2019-02-28T09:48:30.682Z,8.00
2019-02-28T09:50:59.813Z,7.50
2019-02-28T09:53:28.728Z,7.10
2019-02-28T09:55:57.732Z,7.10
2019-02-28T09:58:29.362Z,6.90
2019-02-28T10:00:57.183Z,6.80
2019-02-28T10:03:26.092Z,6.60
2019-02-28T10:05:55.018Z,6.50
2019-02-28T10:08:23.907Z,6.20
2019-02-28T10:10:55.788Z,6.20
2019-02-28T10:13:23.462Z,6.20
2019-02-28T10:15:52.292Z,6.10
2019-02-28T10:18:21.277Z,5.90
2019-02-28T10:20:50.185Z,5.90
2019-02-28T10:23:21.416Z,6.00
2019-02-28T10:25:49.640Z,5.90
2019-02-28T10:28:18.648Z,6.00
2019-02-28T10:30:50.164Z,6.10
2019-02-28T10:33:18.213Z,6.40
2019-02-28T10:35:47.112Z,6.50
2019-02-28T10:38:15.972Z,6.60
2019-02-28T10:40:44.927Z,6.70
2019-02-28T10:43:17.008Z,6.80
2019-02-28T10:45:46.157Z,6.60
2019-02-28T10:48:15.217Z,6.40
2019-02-28T10:50:44.245Z,6.40
2019-02-28T10:53:13.151Z,6.10
2019-02-28T10:55:42.552Z,6.00
2019-02-28T10:58:12.538Z,6.00
2019-02-28T11:00:46.360Z,6.00
2019-02-28T11:03:15.437Z,5.90
2019-02-28T11:05:45.368Z,5.90
2019-02-28T11:08:18.894Z,5.80
2019-02-28T11:10:47.381Z,5.70
2019-02-28T11:13:22.774Z,5.80
2019-02-28T11:15:51.824Z,5.80
2019-02-28T11:18:20.756Z,5.80
2019-02-28T11:20:49.762Z,5.80
2019-02-28T11:23:19.101Z,5.80
2019-02-28T11:25:47.998Z,6.00
2019-02-28T11:28:17.395Z,6.10
2019-02-28T11:30:47.033Z,6.20
2019-02-28T11:33:17.904Z,6.20
2019-02-28T11:35:46.791Z,6.10
2019-02-28T11:38:20.438Z,6.10
2019-02-28T11:40:46.453Z,6.00
2019-02-28T11:43:15.359Z,6.00
2019-02-28T11:45:48.416Z,6.00
2019-02-28T11:48:27.813Z,5.90
2019-02-28T11:50:56.817Z,5.90
2019-02-28T11:53:25.726Z,6.00
2019-02-28T11:55:54.634Z,6.00
2019-02-28T11:58:23.524Z,6.10
2019-02-28T12:00:52.373Z,6.00
2019-02-28T12:03:21.255Z,6.00
2019-02-28T12:05:50.672Z,6.20
2019-02-28T12:08:22.220Z,6.40
2019-02-28T12:10:50.844Z,6.40
2019-02-28T12:13:20.577Z,6.90
2019-02-28T12:15:49.790Z,7.60
2019-02-28T12:18:18.703Z,7.60
2019-02-28T12:20:47.616Z,7.20
2019-02-28T12:23:16.464Z,6.90
2019-02-28T12:25:45.418Z,6.70
2019-02-28T12:28:16.017Z,6.50
2019-02-28T12:30:46.404Z,6.20
2019-02-28T12:33:18.318Z,6.20
2019-02-28T12:35:45.858Z,6.10
2019-02-28T12:38:14.765Z,5.90
2019-02-28T12:40:45.663Z,5.70
2019-02-28T12:43:15.038Z,5.70
2019-02-28T12:45:47.223Z,5.60
2019-02-28T12:48:16.056Z,5.60
2019-02-28T12:50:45.036Z,5.50
2019-02-28T12:53:14.148Z,5.40
2019-02-28T12:55:43.163Z,5.30
2019-02-28T12:58:12.066Z,5.00
2019-02-28T13:00:45.994Z,4.80
2019-02-28T13:03:19.432Z,4.80
2019-02-28T13:05:47.951Z,4.50
2019-02-28T13:08:15.988Z,4.40
2019-02-28T13:10:45.002Z,4.30
2019-02-28T13:13:13.909Z,4.30
2019-02-28T13:15:45.457Z,4.30
2019-02-28T13:18:13.255Z,4.40
2019-02-28T13:20:42.163Z,4.40
2019-02-28T13:23:11.060Z,4.40
2019-02-28T13:25:39.985Z,4.40
2019-02-28T13:28:09.214Z,4.50
2019-02-28T13:30:40.021Z,4.40
2019-02-28T13:33:10.947Z,4.30
2019-02-28T13:35:45.477Z,4.30
2019-02-28T13:38:17.346Z,4.30
2019-02-28T13:40:44.742Z,4.30
2019-02-28T13:43:19.675Z,4.20
2019-02-28T13:45:43.534Z,4.10
2019-02-28T13:48:12.431Z,4.10
2019-02-28T13:50:41.344Z,4.10
2019-02-28T13:53:18.583Z,4.20
2019-02-28T13:55:41.008Z,4.20
2019-02-28T13:58:10.111Z,4.10
2019-02-28T14:00:43.969Z,4.20
2019-02-28T14:03:11.105Z,4.20
2019-02-28T14:05:41.472Z,4.30
2019-02-28T14:08:12.013Z,4.30
2019-02-28T14:10:41.833Z,4.40
2019-02-28T14:13:10.826Z,4.50
2019-02-28T14:15:51.373Z,4.60
2019-02-28T14:18:18.466Z,4.50
2019-02-28T14:20:49.115Z,4.50
2019-02-28T14:23:20.639Z,4.50
2019-02-28T14:25:48.671Z,4.50
2019-02-28T14:28:17.676Z,4.40
2019-02-28T14:30:46.587Z,4.30
2019-02-28T14:33:16.109Z,4.30
2019-02-28T14:35:46.037Z,4.30
2019-02-28T14:38:15.150Z,4.20
2019-02-28T14:40:44.161Z,4.20
2019-02-28T14:43:13.094Z,4.10
2019-02-28T14:45:44.332Z,4.00
2019-02-28T14:48:12.539Z,4.00
2019-02-28T14:50:41.429Z,3.90
2019-02-28T14:53:13.330Z,3.80
2019-02-28T14:55:40.984Z,3.80
2019-02-28T14:58:09.897Z,3.80
2019-02-28T15:00:42.308Z,3.90
2019-02-28T15:03:10.271Z,3.90
2019-02-28T15:05:40.709Z,3.90
2019-02-28T15:08:11.968Z,3.80
2019-02-28T15:10:41.082Z,3.90
2019-02-28T15:13:09.989Z,3.80
2019-02-28T15:15:38.902Z,3.80
2019-02-28T15:18:10.913Z,3.70
2019-02-28T15:20:38.556Z,3.60
2019-02-28T15:23:07.567Z,3.60
2019-02-28T15:25:36.593Z,3.50
2019-02-28T15:28:05.488Z,3.50
2019-02-28T15:30:38.998Z,3.40
2019-02-28T15:33:07.906Z,3.40
2019-02-28T15:35:36.917Z,3.40
2019-02-28T15:38:09.356Z,3.30
2019-02-28T15:40:41.590Z,3.20
2019-02-28T15:43:10.602Z,2.90
2019-02-28T15:45:39.526Z,2.80
2019-02-28T15:48:08.518Z,2.60
2019-02-28T15:50:37.526Z,2.60
2019-02-28T15:53:07.792Z,2.60
2019-02-28T15:55:37.184Z,2.50
2019-02-28T15:58:06.982Z,2.50
2019-02-28T16:00:37.122Z,2.40
2019-02-28T16:03:06.273Z,2.30
2019-02-28T16:05:35.292Z,2.30
2019-02-28T16:08:08.731Z,2.20
2019-02-28T16:10:35.749Z,2.20
2019-02-28T16:13:06.905Z,2.20
2019-02-28T16:15:35.309Z,2.20
2019-02-28T16:18:04.521Z,2.20
2019-02-28T16:20:33.458Z,2.00
2019-02-28T16:23:02.338Z,1.90
2019-02-28T16:25:36.871Z,1.80
2019-02-28T16:28:08.757Z,1.70
2019-02-28T16:30:39.076Z,1.60
2019-02-28T16:33:07.945Z,1.70
2019-02-28T16:35:36.800Z,1.60
2019-02-28T16:38:06.574Z,1.60
2019-02-28T16:40:36.356Z,1.50
2019-02-28T16:43:05.265Z,1.50
2019-02-28T16:45:37.635Z,1.40
2019-02-28T16:48:09.016Z,1.30
2019-02-28T16:50:38.025Z,1.20
2019-02-28T16:53:06.965Z,1.20
2019-02-28T16:55:35.944Z,1.20
2019-02-28T16:58:05.056Z,1.10
2019-02-28T17:00:33.965Z,1.10
2019-02-28T17:03:04.089Z,1.10
2019-02-28T17:05:33.519Z,1.00
2019-02-28T17:08:02.437Z,1.00
2019-02-28T17:10:32.976Z,1.10
2019-02-28T17:13:12.730Z,1.00
2019-02-28T17:15:43.274Z,1.10
2019-02-28T17:18:21.647Z,1.10
2019-02-28T17:20:50.198Z,1.10
2019-02-28T17:23:19.106Z,1.00
2019-02-28T17:25:48.014Z,1.00
2019-02-28T17:28:35.240Z,1.00
2019-02-28T17:31:22.061Z,0.90
2019-02-28T17:33:51.376Z,0.90
2019-02-28T17:36:20.617Z,0.90
2019-02-28T17:38:49.708Z,0.90
2019-02-28T17:41:18.611Z,0.90
2019-02-28T17:44:02.669Z,0.90
2019-02-28T17:46:31.676Z,0.90
2019-02-28T17:49:09.487Z,0.90
2019-02-28T17:51:44.331Z,0.90
2019-02-28T17:54:39.136Z,0.80
2019-02-28T17:57:20.012Z,0.80
2019-02-28T18:00:16.159Z,0.90
2019-02-28T18:03:09.805Z,0.90
2019-02-28T18:06:04.311Z,0.90
2019-02-28T18:08:48.980Z,0.90
2019-02-28T18:11:52.685Z,0.90
2019-02-28T18:14:34.109Z,0.90
2019-02-28T18:17:32.476Z,0.90
2019-02-28T18:20:14.267Z,0.90
2019-02-28T18:23:07.325Z,0.90
2019-02-28T18:25:51.639Z,1.00
2019-02-28T18:28:30.928Z,1.00
2019-02-28T18:31:13.462Z,1.00
2019-02-28T18:33:52.269Z,1.00
2019-02-28T18:36:24.367Z,1.00
2019-02-28T18:38:53.276Z,1.00
2019-02-28T18:41:22.185Z,1.00
2019-02-28T18:43:51.090Z,0.90
2019-02-28T18:46:20.204Z,1.00
2019-02-28T18:48:51.289Z,1.00
2019-02-28T18:51:19.652Z,0.90
2019-02-28T18:53:48.663Z,1.00
2019-02-28T18:56:17.677Z,1.00
2019-02-28T18:58:46.505Z,1.00
2019-02-28T19:01:19.794Z,1.00
2019-02-28T19:03:48.696Z,1.00
2019-02-28T19:06:17.706Z,1.00
2019-02-28T19:08:46.614Z,1.00
2019-02-28T19:11:15.521Z,1.00
2019-02-28T19:13:44.430Z,1.00
2019-02-28T19:16:15.149Z,1.00
2019-02-28T19:18:43.881Z,1.00
2019-02-28T19:21:12.789Z,1.00
2019-02-28T19:23:41.679Z,1.10
2019-02-28T19:26:10.608Z,1.10
2019-02-28T19:28:39.617Z,1.10
2019-02-28T19:31:08.521Z,1.10
2019-02-28T19:33:37.537Z,1.10
2019-02-28T19:36:07.364Z,1.10
2019-02-28T19:38:36.372Z,1.00
2019-02-28T19:41:06.616Z,1.00
2019-02-28T19:43:35.732Z,1.00
2019-02-28T19:46:04.750Z,1.10
2019-02-28T19:48:36.726Z,1.00
2019-02-28T19:51:05.825Z,1.10
2019-02-28T19:53:34.833Z,1.00
2019-02-28T19:56:03.744Z,1.10
2019-02-28T19:58:32.649Z,1.00
2019-02-28T20:01:01.659Z,1.00
2019-02-28T20:03:30.566Z,1.00
2019-02-28T20:06:01.255Z,1.10
2019-02-28T20:08:30.226Z,1.00
2019-02-28T20:10:59.139Z,1.00
2019-02-28T20:13:28.040Z,1.00
2019-02-28T20:15:57.095Z,1.00
2019-02-28T20:18:26.063Z,1.00
2019-02-28T20:20:54.971Z,1.00
2019-02-28T20:23:25.025Z,1.00
2019-02-28T20:25:54.114Z,1.00
2019-02-28T20:28:23.021Z,1.00
2019-02-28T20:30:51.931Z,1.00
2019-02-28T20:33:20.943Z,1.00
2019-02-28T20:35:49.853Z,1.00
2019-02-28T20:38:19.709Z,1.00
2019-02-28T20:40:48.789Z,1.00
2019-02-28T20:43:17.696Z,1.00
2019-02-28T20:45:46.604Z,1.00
2019-02-28T20:48:15.512Z,1.00
2019-02-28T20:50:53.334Z,1.00
2019-02-28T20:53:24.152Z,1.00
2019-02-28T20:55:52.776Z,1.00
2019-02-28T20:58:21.684Z,1.00
2019-02-28T21:00:50.593Z,1.00
2019-02-28T21:03:19.500Z,1.00
2019-02-28T21:05:48.413Z,1.00
2019-02-28T21:08:17.317Z,1.00
2019-02-28T21:10:46.201Z,1.00
2019-02-28T21:13:15.132Z,1.00
2019-02-28T21:15:44.040Z,1.00
2019-02-28T21:18:12.949Z,1.00
2019-02-28T21:20:42.491Z,1.00
2019-02-28T21:23:11.460Z,1.00
2019-02-28T21:25:40.388Z,1.00
2019-02-28T21:28:09.398Z,1.00
2019-02-28T21:30:38.307Z,1.00
2019-02-28T21:33:07.152Z,1.00
2019-02-28T21:35:36.124Z,1.00
2019-02-28T21:38:05.237Z,1.00
2019-02-28T21:40:34.450Z,1.00
2019-02-28T21:43:03.358Z,1.00
2019-02-28T21:45:33.586Z,1.00
2019-02-28T21:48:02.808Z,1.00
2019-02-28T21:50:31.717Z,1.00
2019-02-28T21:53:00.627Z,1.00
2019-02-28T21:55:29.644Z,1.00
2019-02-28T21:57:58.543Z,1.00
2019-02-28T22:00:28.781Z,0.90
2019-02-28T22:02:57.687Z,0.90
2019-02-28T22:05:26.600Z,1.00
2019-02-28T22:07:55.503Z,0.90
2019-02-28T22:10:24.412Z,0.90
2019-02-28T22:12:53.320Z,0.90
2019-02-28T22:15:23.244Z,0.90
2019-02-28T22:17:52.365Z,0.90
2019-02-28T22:20:21.274Z,0.90
2019-02-28T22:22:52.085Z,0.90
2019-02-28T22:25:20.722Z,0.90
2019-02-28T22:27:49.630Z,0.90
2019-02-28T22:30:28.058Z,0.90
2019-02-28T22:32:58.460Z,0.90
2019-02-28T22:35:28.941Z,0.90
2019-02-28T22:37:57.855Z,0.90
2019-02-28T22:40:26.761Z,0.90
2019-02-28T22:42:55.769Z,0.90
2019-02-28T22:45:24.677Z,0.90
2019-02-28T22:47:53.627Z,0.90
2019-02-28T22:50:22.594Z,0.90
2019-02-28T22:52:53.742Z,0.90
2019-02-28T22:55:22.868Z,0.80
2019-02-28T22:57:51.865Z,0.70
2019-02-28T23:00:31.327Z,0.70
2019-02-28T23:03:00.442Z,0.70
2019-02-28T23:05:29.344Z,0.70
2019-02-28T23:07:58.177Z,0.60
2019-02-28T23:10:27.164Z,0.60
2019-02-28T23:12:56.067Z,0.60
2019-02-28T23:15:24.975Z,0.60
2019-02-28T23:17:53.886Z,0.60
2019-02-28T23:20:22.770Z,0.60
2019-02-28T23:22:51.802Z,0.50
2019-02-28T23:25:20.709Z,0.50
2019-02-28T23:27:49.617Z,0.50
2019-02-28T23:30:27.327Z,0.50
2019-02-28T23:32:59.359Z,0.40
2019-02-28T23:35:31.182Z,0.40
2019-02-28T23:38:00.086Z,0.40
2019-02-28T23:40:28.998Z,0.40
2019-02-28T23:42:57.822Z,0.30
2019-02-28T23:45:26.727Z,0.40
2019-02-28T23:47:55.617Z,0.40
2019-02-28T23:50:24.526Z,0.30
2019-02-28T23:52:53.437Z,0.30
2019-02-28T23:55:22.342Z,0.30
2019-02-28T23:57:51.247Z,0.30
